Terminal Aerodrome Forecast
Issued by NWS Sterling, VA

Current Version | Previous Version | Graphics & Text | Print | Product List | Glossary On
Versions: 1 2 3 4 5 6 7 8 9 10 11 12 13 14 15 16 17 18 19 20 21 22 23
975
FTUS41 KLWX 261503 AAA
TAFDCA
TAF AMD
KDCA 261503Z 2615/2712 17010KT P6SM SCT035 OVC045
     FM270200 18009KT P6SM BKN030 OVC035
     FM270400 20008KT P6SM -SHRA BKN020 OVC035
     FM270600 22007KT P6SM -SHRA BKN008 OVC025
     FM270900 29006KT P6SM SCT035 OVC040=

USA.gov is the U.S. government's official web portal to all federal, state and local government web resources and services.